sensor_id;sensor_type;location;lat;lon;timestamp;temperature;humidity
45549;DHT22;31270;48.328;10.096;2024-03-08T00:00:06;0.90;99.90
45549;DHT22;31270;48.328;10.096;2024-03-08T00:02:37;0.90;99.90
45549;DHT22;31270;48.328;10.096;2024-03-08T00:05:04;0.80;99.90
45549;DHT22;31270;48.328;10.096;2024-03-08T00:07:30;0.80;99.90
45549;DHT22;31270;48.328;10.096;2024-03-08T00:09:55;0.80;99.90
45549;DHT22;31270;48.328;10.096;2024-03-08T00:12:21;0.70;99.90
45549;DHT22;31270;48.328;10.096;2024-03-08T00:14:47;0.70;99.90
45549;DHT22;31270;48.328;10.096;2024-03-08T00:17:12;0.70;99.90
45549;DHT22;31270;48.328;10.096;2024-03-08T00:19:38;0.70;99.90
45549;DHT22;31270;48.328;10.096;2024-03-08T00:22:04;0.60;99.90
45549;DHT22;31270;48.328;10.096;2024-03-08T00:24:30;0.60;99.90
45549;DHT22;31270;48.328;10.096;2024-03-08T00:26:56;0.60;99.90
45549;DHT22;31270;48.328;10.096;2024-03-08T00:29:21;0.60;99.90
45549;DHT22;31270;48.328;10.096;2024-03-08T00:31:47;0.60;99.90
45549;DHT22;31270;48.328;10.096;2024-03-08T00:34:13;0.60;99.90
45549;DHT22;31270;48.328;10.096;2024-03-08T00:36:39;0.50;99.90
45549;DHT22;31270;48.328;10.096;2024-03-08T00:39:04;0.50;99.90
45549;DHT22;31270;48.328;10.096;2024-03-08T00:41:32;0.50;99.90
45549;DHT22;31270;48.328;10.096;2024-03-08T00:43:58;0.50;99.90
45549;DHT22;31270;48.328;10.096;2024-03-08T00:46:24;0.40;99.90
45549;DHT22;31270;48.328;10.096;2024-03-08T00:48:49;0.40;99.90
45549;DHT22;31270;48.328;10.096;2024-03-08T00:51:15;0.40;99.90
45549;DHT22;31270;48.328;10.096;2024-03-08T00:53:41;0.40;99.90
45549;DHT22;31270;48.328;10.096;2024-03-08T00:56:08;0.40;99.90
45549;DHT22;31270;48.328;10.096;2024-03-08T00:58:37;0.40;99.90
45549;DHT22;31270;48.328;10.096;2024-03-08T01:01:03;0.40;99.90
45549;DHT22;31270;48.328;10.096;2024-03-08T01:03:32;0.40;99.90
45549;DHT22;31270;48.328;10.096;2024-03-08T01:06:00;0.30;99.90
45549;DHT22;31270;48.328;10.096;2024-03-08T01:08:27;0.30;99.90
45549;DHT22;31270;48.328;10.096;2024-03-08T01:10:53;0.30;99.90
45549;DHT22;31270;48.328;10.096;2024-03-08T01:13:19;0.30;99.90
45549;DHT22;31270;48.328;10.096;2024-03-08T01:15:45;0.30;99.90
45549;DHT22;31270;48.328;10.096;2024-03-08T01:18:11;0.30;99.90
45549;DHT22;31270;48.328;10.096;2024-03-08T01:20:37;0.30;99.90
45549;DHT22;31270;48.328;10.096;2024-03-08T01:23:02;0.20;99.90
45549;DHT22;31270;48.328;10.096;2024-03-08T01:25:29;0.20;99.90
45549;DHT22;31270;48.328;10.096;2024-03-08T01:27:54;0.20;99.90
45549;DHT22;31270;48.328;10.096;2024-03-08T01:30:20;0.20;99.90
45549;DHT22;31270;48.328;10.096;2024-03-08T01:32:45;0.10;99.90
45549;DHT22;31270;48.328;10.096;2024-03-08T01:35:11;0.10;99.90
45549;DHT22;31270;48.328;10.096;2024-03-08T01:37:37;0.10;99.90
45549;DHT22;31270;48.328;10.096;2024-03-08T01:40:03;0.20;99.90
45549;DHT22;31270;48.328;10.096;2024-03-08T01:42:29;0.10;99.90
45549;DHT22;31270;48.328;10.096;2024-03-08T01:44:55;0.10;99.90
45549;DHT22;31270;48.328;10.096;2024-03-08T01:47:21;0.10;99.90
45549;DHT22;31270;48.328;10.096;2024-03-08T01:49:49;0.00;99.90
45549;DHT22;31270;48.328;10.096;2024-03-08T01:52:16;0.00;99.90
45549;DHT22;31270;48.328;10.096;2024-03-08T01:54:41;0.00;99.90
45549;DHT22;31270;48.328;10.096;2024-03-08T01:57:07;0.10;99.90
45549;DHT22;31270;48.328;10.096;2024-03-08T01:59:34;0.00;99.90
45549;DHT22;31270;48.328;10.096;2024-03-08T02:02:01;0.00;99.90
45549;DHT22;31270;48.328;10.096;2024-03-08T02:04:29;0.00;99.90
45549;DHT22;31270;48.328;10.096;2024-03-08T02:06:56;0.00;99.90
45549;DHT22;31270;48.328;10.096;2024-03-08T02:09:24;0.00;99.90
45549;DHT22;31270;48.328;10.096;2024-03-08T02:11:50;0.00;99.90
45549;DHT22;31270;48.328;10.096;2024-03-08T02:14:17;0.00;99.90
45549;DHT22;31270;48.328;10.096;2024-03-08T02:16:44;0.00;99.90
45549;DHT22;31270;48.328;10.096;2024-03-08T02:19:09;0.00;99.90
45549;DHT22;31270;48.328;10.096;2024-03-08T02:21:35;-0.10;99.90
45549;DHT22;31270;48.328;10.096;2024-03-08T02:24:01;-0.10;99.90
45549;DHT22;31270;48.328;10.096;2024-03-08T02:26:27;-0.10;99.90
45549;DHT22;31270;48.328;10.096;2024-03-08T02:28:53;-0.10;99.90
45549;DHT22;31270;48.328;10.096;2024-03-08T02:31:19;-0.20;99.90
45549;DHT22;31270;48.328;10.096;2024-03-08T02:33:47;-0.20;99.90
45549;DHT22;31270;48.328;10.096;2024-03-08T02:36:13;-0.20;99.90
45549;DHT22;31270;48.328;10.096;2024-03-08T02:38:39;-0.20;99.90
45549;DHT22;31270;48.328;10.096;2024-03-08T02:41:07;-0.20;99.90
45549;DHT22;31270;48.328;10.096;2024-03-08T02:43:34;-0.20;99.90
45549;DHT22;31270;48.328;10.096;2024-03-08T02:46:00;-0.20;99.90
45549;DHT22;31270;48.328;10.096;2024-03-08T02:48:25;-0.20;99.90
45549;DHT22;31270;48.328;10.096;2024-03-08T02:50:51;-0.20;99.90
45549;DHT22;31270;48.328;10.096;2024-03-08T02:53:17;-0.20;99.90
45549;DHT22;31270;48.328;10.096;2024-03-08T02:55:44;-0.20;99.90
45549;DHT22;31270;48.328;10.096;2024-03-08T02:58:10;-0.20;99.90
45549;DHT22;31270;48.328;10.096;2024-03-08T03:00:39;-0.20;99.90
45549;DHT22;31270;48.328;10.096;2024-03-08T03:03:06;-0.20;99.90
45549;DHT22;31270;48.328;10.096;2024-03-08T03:05:32;-0.20;99.90
45549;DHT22;31270;48.328;10.096;2024-03-08T03:07:59;-0.20;99.90
45549;DHT22;31270;48.328;10.096;2024-03-08T03:10:25;-0.20;99.90
45549;DHT22;31270;48.328;10.096;2024-03-08T03:12:51;-0.20;99.90
45549;DHT22;31270;48.328;10.096;2024-03-08T03:15:17;-0.20;99.90
45549;DHT22;31270;48.328;10.096;2024-03-08T03:17:52;-0.10;99.90
45549;DHT22;31270;48.328;10.096;2024-03-08T03:20:18;-0.10;99.90
45549;DHT22;31270;48.328;10.096;2024-03-08T03:23:02;-0.10;99.90
45549;DHT22;31270;48.328;10.096;2024-03-08T03:25:28;-0.10;99.90
45549;DHT22;31270;48.328;10.096;2024-03-08T03:27:59;-0.10;99.90
45549;DHT22;31270;48.328;10.096;2024-03-08T03:30:25;-0.10;99.90
45549;DHT22;31270;48.328;10.096;2024-03-08T03:33:00;-0.10;99.90
45549;DHT22;31270;48.328;10.096;2024-03-08T03:35:27;-0.10;99.90
45549;DHT22;31270;48.328;10.096;2024-03-08T03:37:52;-0.10;99.90
45549;DHT22;31270;48.328;10.096;2024-03-08T03:40:39;-0.10;99.90
45549;DHT22;31270;48.328;10.096;2024-03-08T03:43:06;-0.10;99.90
45549;DHT22;31270;48.328;10.096;2024-03-08T03:45:32;-0.10;99.90
45549;DHT22;31270;48.328;10.096;2024-03-08T03:48:07;-0.10;99.90
45549;DHT22;31270;48.328;10.096;2024-03-08T03:50:35;-0.10;99.90
45549;DHT22;31270;48.328;10.096;2024-03-08T03:53:00;-0.10;99.90
45549;DHT22;31270;48.328;10.096;2024-03-08T03:55:27;0.00;99.90
45549;DHT22;31270;48.328;10.096;2024-03-08T03:57:54;0.00;99.90
45549;DHT22;31270;48.328;10.096;2024-03-08T04:00:20;0.00;99.90
45549;DHT22;31270;48.328;10.096;2024-03-08T04:02:46;0.00;99.90
45549;DHT22;31270;48.328;10.096;2024-03-08T04:05:12;-0.10;99.90
45549;DHT22;31270;48.328;10.096;2024-03-08T04:07:38;0.00;99.90
45549;DHT22;31270;48.328;10.096;2024-03-08T04:10:06;0.00;99.90
45549;DHT22;31270;48.328;10.096;2024-03-08T04:12:33;0.00;99.90
45549;DHT22;31270;48.328;10.096;2024-03-08T04:14:59;0.00;99.90
45549;DHT22;31270;48.328;10.096;2024-03-08T04:17:25;0.10;99.90
45549;DHT22;31270;48.328;10.096;2024-03-08T04:19:51;0.00;99.90
45549;DHT22;31270;48.328;10.096;2024-03-08T04:22:17;0.00;99.90
45549;DHT22;31270;48.328;10.096;2024-03-08T04:24:44;0.00;99.90
45549;DHT22;31270;48.328;10.096;2024-03-08T04:27:10;0.00;99.90
45549;DHT22;31270;48.328;10.096;2024-03-08T04:29:36;0.10;99.90
45549;DHT22;31270;48.328;10.096;2024-03-08T04:32:03;0.10;99.90
45549;DHT22;31270;48.328;10.096;2024-03-08T04:34:30;0.10;99.90
45549;DHT22;31270;48.328;10.096;2024-03-08T04:36:57;0.10;99.90
45549;DHT22;31270;48.328;10.096;2024-03-08T04:39:23;0.10;99.90
45549;DHT22;31270;48.328;10.096;2024-03-08T04:41:49;0.10;99.90
45549;DHT22;31270;48.328;10.096;2024-03-08T04:44:16;0.10;99.90
45549;DHT22;31270;48.328;10.096;2024-03-08T04:46:43;0.10;99.90
45549;DHT22;31270;48.328;10.096;2024-03-08T04:49:09;0.00;99.90
45549;DHT22;31270;48.328;10.096;2024-03-08T04:51:37;0.10;99.90
45549;DHT22;31270;48.328;10.096;2024-03-08T04:54:03;0.00;99.90
45549;DHT22;31270;48.328;10.096;2024-03-08T04:56:30;0.10;99.90
45549;DHT22;31270;48.328;10.096;2024-03-08T04:58:56;0.00;99.90
45549;DHT22;31270;48.328;10.096;2024-03-08T05:01:21;0.00;99.90
45549;DHT22;31270;48.328;10.096;2024-03-08T05:03:47;0.00;99.90
45549;DHT22;31270;48.328;10.096;2024-03-08T05:06:16;0.00;99.90
45549;DHT22;31270;48.328;10.096;2024-03-08T05:08:41;0.00;99.90
45549;DHT22;31270;48.328;10.096;2024-03-08T05:11:07;0.00;99.90
45549;DHT22;31270;48.328;10.096;2024-03-08T05:13:33;0.00;99.90
45549;DHT22;31270;48.328;10.096;2024-03-08T05:15:59;0.10;99.90
45549;DHT22;31270;48.328;10.096;2024-03-08T05:18:25;0.10;99.90
45549;DHT22;31270;48.328;10.096;2024-03-08T05:20:53;0.10;99.90
45549;DHT22;31270;48.328;10.096;2024-03-08T05:23:19;0.10;99.90
45549;DHT22;31270;48.328;10.096;2024-03-08T05:25:45;0.10;99.90
45549;DHT22;31270;48.328;10.096;2024-03-08T05:28:12;0.10;99.90
45549;DHT22;31270;48.328;10.096;2024-03-08T05:30:38;0.10;99.90
45549;DHT22;31270;48.328;10.096;2024-03-08T05:33:04;0.00;99.90
45549;DHT22;31270;48.328;10.096;2024-03-08T05:35:30;0.10;99.90
45549;DHT22;31270;48.328;10.096;2024-03-08T05:37:56;0.00;99.90
45549;DHT22;31270;48.328;10.096;2024-03-08T05:40:23;0.10;99.90
45549;DHT22;31270;48.328;10.096;2024-03-08T05:42:49;0.00;99.90
45549;DHT22;31270;48.328;10.096;2024-03-08T05:45:15;0.10;99.90
45549;DHT22;31270;48.328;10.096;2024-03-08T05:47:41;0.10;99.90
45549;DHT22;31270;48.328;10.096;2024-03-08T05:50:08;0.10;99.90
45549;DHT22;31270;48.328;10.096;2024-03-08T05:52:36;0.10;99.90
45549;DHT22;31270;48.328;10.096;2024-03-08T05:55:03;0.00;99.90
45549;DHT22;31270;48.328;10.096;2024-03-08T05:57:32;0.00;99.90
45549;DHT22;31270;48.328;10.096;2024-03-08T05:59:58;0.00;99.90
45549;DHT22;31270;48.328;10.096;2024-03-08T06:02:23;0.00;99.90
45549;DHT22;31270;48.328;10.096;2024-03-08T06:04:49;0.10;99.90
45549;DHT22;31270;48.328;10.096;2024-03-08T06:07:15;0.10;99.90
45549;DHT22;31270;48.328;10.096;2024-03-08T06:09:43;0.10;99.90
45549;DHT22;31270;48.328;10.096;2024-03-08T06:12:11;0.10;99.90
45549;DHT22;31270;48.328;10.096;2024-03-08T06:14:37;0.10;99.90
45549;DHT22;31270;48.328;10.096;2024-03-08T06:17:03;0.10;99.90
45549;DHT22;31270;48.328;10.096;2024-03-08T06:19:32;0.10;99.90
45549;DHT22;31270;48.328;10.096;2024-03-08T06:21:58;0.10;99.90
45549;DHT22;31270;48.328;10.096;2024-03-08T06:24:24;0.00;99.90
45549;DHT22;31270;48.328;10.096;2024-03-08T06:26:50;0.10;99.90
45549;DHT22;31270;48.328;10.096;2024-03-08T06:29:15;0.10;99.90
45549;DHT22;31270;48.328;10.096;2024-03-08T06:31:41;0.10;99.90
45549;DHT22;31270;48.328;10.096;2024-03-08T06:34:07;0.10;99.90
45549;DHT22;31270;48.328;10.096;2024-03-08T06:36:33;0.20;99.90
45549;DHT22;31270;48.328;10.096;2024-03-08T06:38:59;0.20;99.90
45549;DHT22;31270;48.328;10.096;2024-03-08T06:41:25;0.10;99.90
45549;DHT22;31270;48.328;10.096;2024-03-08T06:43:50;0.20;99.90
45549;DHT22;31270;48.328;10.096;2024-03-08T06:46:17;0.20;99.90
45549;DHT22;31270;48.328;10.096;2024-03-08T06:48:44;0.20;99.90
45549;DHT22;31270;48.328;10.096;2024-03-08T06:51:11;0.20;99.90
45549;DHT22;31270;48.328;10.096;2024-03-08T06:53:38;0.20;99.90
45549;DHT22;31270;48.328;10.096;2024-03-08T06:56:04;0.20;99.90
45549;DHT22;31270;48.328;10.096;2024-03-08T06:58:29;0.30;99.90
45549;DHT22;31270;48.328;10.096;2024-03-08T07:00:55;0.30;99.90
45549;DHT22;31270;48.328;10.096;2024-03-08T07:03:24;0.30;99.90
45549;DHT22;31270;48.328;10.096;2024-03-08T07:05:49;0.30;99.90
45549;DHT22;31270;48.328;10.096;2024-03-08T07:08:15;0.30;99.90
45549;DHT22;31270;48.328;10.096;2024-03-08T07:10:41;0.20;99.90
45549;DHT22;31270;48.328;10.096;2024-03-08T07:13:07;0.20;99.90
45549;DHT22;31270;48.328;10.096;2024-03-08T07:15:33;0.10;99.90
45549;DHT22;31270;48.328;10.096;2024-03-08T07:17:59;0.20;99.90
45549;DHT22;31270;48.328;10.096;2024-03-08T07:20:28;0.20;99.90
45549;DHT22;31270;48.328;10.096;2024-03-08T07:22:54;0.30;99.90
45549;DHT22;31270;48.328;10.096;2024-03-08T07:25:19;0.30;99.90
45549;DHT22;31270;48.328;10.096;2024-03-08T07:27:53;0.30;99.90
45549;DHT22;31270;48.328;10.096;2024-03-08T07:30:24;0.30;99.90
45549;DHT22;31270;48.328;10.096;2024-03-08T07:33:08;0.40;99.90
45549;DHT22;31270;48.328;10.096;2024-03-08T07:35:37;0.40;99.90
45549;DHT22;31270;48.328;10.096;2024-03-08T07:38:12;0.40;99.90
45549;DHT22;31270;48.328;10.096;2024-03-08T07:40:39;0.40;99.90
45549;DHT22;31270;48.328;10.096;2024-03-08T07:43:09;0.40;99.90
45549;DHT22;31270;48.328;10.096;2024-03-08T07:45:36;0.40;99.90
45549;DHT22;31270;48.328;10.096;2024-03-08T07:48:03;0.40;99.90
45549;DHT22;31270;48.328;10.096;2024-03-08T07:50:29;0.40;99.90
45549;DHT22;31270;48.328;10.096;2024-03-08T07:52:54;0.50;99.90
45549;DHT22;31270;48.328;10.096;2024-03-08T07:55:20;0.50;99.90
45549;DHT22;31270;48.328;10.096;2024-03-08T07:57:49;0.50;99.90
45549;DHT22;31270;48.328;10.096;2024-03-08T08:00:15;0.50;99.90
45549;DHT22;31270;48.328;10.096;2024-03-08T08:02:44;0.50;99.90
45549;DHT22;31270;48.328;10.096;2024-03-08T08:05:11;0.50;99.90
45549;DHT22;31270;48.328;10.096;2024-03-08T08:07:36;0.60;99.90
45549;DHT22;31270;48.328;10.096;2024-03-08T08:10:02;0.60;99.90
45549;DHT22;31270;48.328;10.096;2024-03-08T08:12:28;0.60;99.90
45549;DHT22;31270;48.328;10.096;2024-03-08T08:14:54;0.70;99.90
45549;DHT22;31270;48.328;10.096;2024-03-08T08:17:20;0.60;99.90
45549;DHT22;31270;48.328;10.096;2024-03-08T08:19:45;0.70;99.90
45549;DHT22;31270;48.328;10.096;2024-03-08T08:22:11;0.70;99.90
45549;DHT22;31270;48.328;10.096;2024-03-08T08:24:37;0.70;99.90
45549;DHT22;31270;48.328;10.096;2024-03-08T08:27:03;0.60;99.90
45549;DHT22;31270;48.328;10.096;2024-03-08T08:29:29;0.60;99.90
45549;DHT22;31270;48.328;10.096;2024-03-08T08:31:58;0.70;99.90
45549;DHT22;31270;48.328;10.096;2024-03-08T08:34:25;0.60;99.90
45549;DHT22;31270;48.328;10.096;2024-03-08T08:36:52;0.60;99.90
45549;DHT22;31270;48.328;10.096;2024-03-08T08:39:18;0.60;99.90
45549;DHT22;31270;48.328;10.096;2024-03-08T08:41:44;0.60;99.90
45549;DHT22;31270;48.328;10.096;2024-03-08T08:44:10;0.60;99.90
45549;DHT22;31270;48.328;10.096;2024-03-08T08:46:37;0.70;99.90
45549;DHT22;31270;48.328;10.096;2024-03-08T08:49:06;0.70;99.90
45549;DHT22;31270;48.328;10.096;2024-03-08T08:51:38;0.70;99.90
45549;DHT22;31270;48.328;10.096;2024-03-08T08:54:04;0.70;99.90
45549;DHT22;31270;48.328;10.096;2024-03-08T08:56:31;0.80;99.90
45549;DHT22;31270;48.328;10.096;2024-03-08T08:58:57;0.90;99.90
45549;DHT22;31270;48.328;10.096;2024-03-08T09:01:23;0.90;99.90
45549;DHT22;31270;48.328;10.096;2024-03-08T09:03:49;0.90;99.90
45549;DHT22;31270;48.328;10.096;2024-03-08T09:06:15;0.90;99.90
45549;DHT22;31270;48.328;10.096;2024-03-08T09:08:42;0.90;99.90
45549;DHT22;31270;48.328;10.096;2024-03-08T09:11:07;0.90;99.90
45549;DHT22;31270;48.328;10.096;2024-03-08T09:13:33;0.90;99.90
45549;DHT22;31270;48.328;10.096;2024-03-08T09:15:59;0.90;99.90
45549;DHT22;31270;48.328;10.096;2024-03-08T09:18:25;1.00;99.90
45549;DHT22;31270;48.328;10.096;2024-03-08T09:20:50;1.00;99.90
45549;DHT22;31270;48.328;10.096;2024-03-08T09:23:19;0.90;99.90
45549;DHT22;31270;48.328;10.096;2024-03-08T09:25:45;1.00;99.90
45549;DHT22;31270;48.328;10.096;2024-03-08T09:28:12;1.00;99.90
45549;DHT22;31270;48.328;10.096;2024-03-08T09:30:38;1.10;99.90
45549;DHT22;31270;48.328;10.096;2024-03-08T09:33:05;1.10;99.90
45549;DHT22;31270;48.328;10.096;2024-03-08T09:35:31;1.10;99.90
45549;DHT22;31270;48.328;10.096;2024-03-08T09:37:57;1.10;99.90
45549;DHT22;31270;48.328;10.096;2024-03-08T09:40:22;1.10;99.90
45549;DHT22;31270;48.328;10.096;2024-03-08T09:42:51;1.10;99.90
45549;DHT22;31270;48.328;10.096;2024-03-08T09:45:20;1.10;99.90
45549;DHT22;31270;48.328;10.096;2024-03-08T09:47:47;1.30;99.90
45549;DHT22;31270;48.328;10.096;2024-03-08T09:50:14;1.30;99.90
45549;DHT22;31270;48.328;10.096;2024-03-08T09:52:47;1.20;99.90
45549;DHT22;31270;48.328;10.096;2024-03-08T09:55:12;1.40;99.90
45549;DHT22;31270;48.328;10.096;2024-03-08T09:57:39;1.40;99.90
45549;DHT22;31270;48.328;10.096;2024-03-08T10:00:06;1.50;99.90
45549;DHT22;31270;48.328;10.096;2024-03-08T10:02:50;1.60;99.90
45549;DHT22;31270;48.328;10.096;2024-03-08T10:05:18;1.50;99.90
45549;DHT22;31270;48.328;10.096;2024-03-08T10:07:43;1.60;99.90
45549;DHT22;31270;48.328;10.096;2024-03-08T10:10:10;1.60;99.90
45549;DHT22;31270;48.328;10.096;2024-03-08T10:12:38;1.70;99.90
45549;DHT22;31270;48.328;10.096;2024-03-08T10:15:07;1.70;99.90
45549;DHT22;31270;48.328;10.096;2024-03-08T10:17:34;1.70;99.90
45549;DHT22;31270;48.328;10.096;2024-03-08T10:20:00;1.70;99.90
45549;DHT22;31270;48.328;10.096;2024-03-08T10:22:26;1.70;99.90
45549;DHT22;31270;48.328;10.096;2024-03-08T10:24:52;1.70;99.90
45549;DHT22;31270;48.328;10.096;2024-03-08T10:27:17;1.50;99.90
45549;DHT22;31270;48.328;10.096;2024-03-08T10:29:47;1.60;99.90
45549;DHT22;31270;48.328;10.096;2024-03-08T10:32:13;1.60;99.90
45549;DHT22;31270;48.328;10.096;2024-03-08T10:34:38;1.70;99.90
45549;DHT22;31270;48.328;10.096;2024-03-08T10:37:05;1.80;99.90
45549;DHT22;31270;48.328;10.096;2024-03-08T10:39:35;1.80;99.90
45549;DHT22;31270;48.328;10.096;2024-03-08T10:42:04;1.80;99.90
45549;DHT22;31270;48.328;10.096;2024-03-08T10:47:17;1.90;99.90
45549;DHT22;31270;48.328;10.096;2024-03-08T10:49:59;2.00;99.90
45549;DHT22;31270;48.328;10.096;2024-03-08T10:52:29;2.00;99.90
45549;DHT22;31270;48.328;10.096;2024-03-08T10:54:56;2.10;99.90
45549;DHT22;31270;48.328;10.096;2024-03-08T10:57:22;2.20;99.90
45549;DHT22;31270;48.328;10.096;2024-03-08T10:59:49;2.30;99.90
45549;DHT22;31270;48.328;10.096;2024-03-08T11:02:16;2.30;99.90
45549;DHT22;31270;48.328;10.096;2024-03-08T11:04:50;2.30;99.90
45549;DHT22;31270;48.328;10.096;2024-03-08T11:07:17;2.30;99.90
45549;DHT22;31270;48.328;10.096;2024-03-08T11:09:45;2.50;99.90
45549;DHT22;31270;48.328;10.096;2024-03-08T11:14:52;2.60;99.90
45549;DHT22;31270;48.328;10.096;2024-03-08T11:19:59;2.80;99.90
45549;DHT22;31270;48.328;10.096;2024-03-08T11:22:29;3.00;99.90
45549;DHT22;31270;48.328;10.096;2024-03-08T11:25:05;3.00;99.90
45549;DHT22;31270;48.328;10.096;2024-03-08T11:27:38;3.00;99.90
45549;DHT22;31270;48.328;10.096;2024-03-08T11:30:07;3.10;99.90
45549;DHT22;31270;48.328;10.096;2024-03-08T11:32:44;3.20;99.90
45549;DHT22;31270;48.328;10.096;2024-03-08T11:35:21;3.30;99.90
45549;DHT22;31270;48.328;10.096;2024-03-08T11:37:48;3.40;99.90
45549;DHT22;31270;48.328;10.096;2024-03-08T11:40:15;3.20;99.90
45549;DHT22;31270;48.328;10.096;2024-03-08T11:42:49;3.10;99.90
45549;DHT22;31270;48.328;10.096;2024-03-08T11:45:19;3.40;99.90
45549;DHT22;31270;48.328;10.096;2024-03-08T11:47:47;3.80;99.90
45549;DHT22;31270;48.328;10.096;2024-03-08T11:50:13;4.10;99.90
45549;DHT22;31270;48.328;10.096;2024-03-08T11:52:39;4.10;99.90
45549;DHT22;31270;48.328;10.096;2024-03-08T11:55:06;4.10;99.90
45549;DHT22;31270;48.328;10.096;2024-03-08T11:57:32;4.00;99.90
45549;DHT22;31270;48.328;10.096;2024-03-08T11:59:58;4.00;99.90
45549;DHT22;31270;48.328;10.096;2024-03-08T12:02:35;4.00;99.90
45549;DHT22;31270;48.328;10.096;2024-03-08T12:05:02;4.40;99.90
45549;DHT22;31270;48.328;10.096;2024-03-08T12:07:31;5.00;99.90
45549;DHT22;31270;48.328;10.096;2024-03-08T12:10:21;5.30;99.90
45549;DHT22;31270;48.328;10.096;2024-03-08T12:12:49;5.50;99.90
45549;DHT22;31270;48.328;10.096;2024-03-08T12:15:17;5.60;99.90
45549;DHT22;31270;48.328;10.096;2024-03-08T12:17:44;5.60;99.90
45549;DHT22;31270;48.328;10.096;2024-03-08T12:20:24;5.60;99.90
45549;DHT22;31270;48.328;10.096;2024-03-08T12:22:55;5.60;99.90
45549;DHT22;31270;48.328;10.096;2024-03-08T12:25:42;5.40;99.90
45549;DHT22;31270;48.328;10.096;2024-03-08T12:28:11;5.50;99.90
45549;DHT22;31270;48.328;10.096;2024-03-08T12:30:51;5.80;99.90
45549;DHT22;31270;48.328;10.096;2024-03-08T12:33:19;5.90;99.90
45549;DHT22;31270;48.328;10.096;2024-03-08T12:35:52;6.30;99.90
45549;DHT22;31270;48.328;10.096;2024-03-08T12:38:28;6.20;99.90
45549;DHT22;31270;48.328;10.096;2024-03-08T12:40:58;6.60;99.90
45549;DHT22;31270;48.328;10.096;2024-03-08T12:43:24;6.70;99.90
45549;DHT22;31270;48.328;10.096;2024-03-08T12:45:50;6.90;99.90
45549;DHT22;31270;48.328;10.096;2024-03-08T12:48:16;7.20;99.90
45549;DHT22;31270;48.328;10.096;2024-03-08T12:50:42;7.30;99.90
45549;DHT22;31270;48.328;10.096;2024-03-08T12:53:10;7.40;99.90
45549;DHT22;31270;48.328;10.096;2024-03-08T12:55:36;7.20;99.90
45549;DHT22;31270;48.328;10.096;2024-03-08T12:58:02;7.20;99.90
45549;DHT22;31270;48.328;10.096;2024-03-08T13:00:28;7.40;99.90
45549;DHT22;31270;48.328;10.096;2024-03-08T13:02:54;7.60;99.90
45549;DHT22;31270;48.328;10.096;2024-03-08T13:05:20;7.70;99.90
45549;DHT22;31270;48.328;10.096;2024-03-08T13:07:46;7.80;99.90
45549;DHT22;31270;48.328;10.096;2024-03-08T13:10:13;7.90;99.90
45549;DHT22;31270;48.328;10.096;2024-03-08T13:12:42;7.70;99.90
45549;DHT22;31270;48.328;10.096;2024-03-08T13:15:09;8.00;99.90
45549;DHT22;31270;48.328;10.096;2024-03-08T13:17:37;8.10;99.90
45549;DHT22;31270;48.328;10.096;2024-03-08T13:20:09;8.20;99.90
45549;DHT22;31270;48.328;10.096;2024-03-08T13:22:41;8.30;99.90
45549;DHT22;31270;48.328;10.096;2024-03-08T13:25:07;8.00;99.90
45549;DHT22;31270;48.328;10.096;2024-03-08T13:27:41;7.90;99.90
45549;DHT22;31270;48.328;10.096;2024-03-08T13:30:09;8.20;99.90
45549;DHT22;31270;48.328;10.096;2024-03-08T13:32:42;8.30;99.90
45549;DHT22;31270;48.328;10.096;2024-03-08T13:35:09;8.00;99.90
45549;DHT22;31270;48.328;10.096;2024-03-08T13:37:41;8.00;99.90
45549;DHT22;31270;48.328;10.096;2024-03-08T13:40:10;8.30;99.90
45549;DHT22;31270;48.328;10.096;2024-03-08T13:42:40;8.10;99.90
45549;DHT22;31270;48.328;10.096;2024-03-08T13:45:10;8.10;99.90
45549;DHT22;31270;48.328;10.096;2024-03-08T13:47:40;8.20;99.90
45549;DHT22;31270;48.328;10.096;2024-03-08T13:50:09;8.20;99.90
45549;DHT22;31270;48.328;10.096;2024-03-08T13:52:39;8.30;99.90
45549;DHT22;31270;48.328;10.096;2024-03-08T13:55:05;8.50;99.90
45549;DHT22;31270;48.328;10.096;2024-03-08T13:57:32;8.50;99.90
45549;DHT22;31270;48.328;10.096;2024-03-08T13:59:58;8.70;99.90
45549;DHT22;31270;48.328;10.096;2024-03-08T14:02:23;8.80;99.90
45549;DHT22;31270;48.328;10.096;2024-03-08T14:04:53;8.80;99.90
45549;DHT22;31270;48.328;10.096;2024-03-08T14:07:20;8.80;99.90
45549;DHT22;31270;48.328;10.096;2024-03-08T14:09:46;9.00;99.90
45549;DHT22;31270;48.328;10.096;2024-03-08T14:12:11;8.90;99.90
45549;DHT22;31270;48.328;10.096;2024-03-08T14:14:37;8.90;99.90
45549;DHT22;31270;48.328;10.096;2024-03-08T14:17:03;9.20;99.90
45549;DHT22;31270;48.328;10.096;2024-03-08T14:19:29;9.20;99.90
45549;DHT22;31270;48.328;10.096;2024-03-08T14:21:56;9.20;99.90
45549;DHT22;31270;48.328;10.096;2024-03-08T14:24:25;8.90;99.90
45549;DHT22;31270;48.328;10.096;2024-03-08T14:26:51;9.00;99.90
45549;DHT22;31270;48.328;10.096;2024-03-08T14:29:17;9.00;99.90
45549;DHT22;31270;48.328;10.096;2024-03-08T14:31:44;9.30;99.90
45549;DHT22;31270;48.328;10.096;2024-03-08T14:34:10;9.50;99.90
45549;DHT22;31270;48.328;10.096;2024-03-08T14:36:36;9.30;99.90
45549;DHT22;31270;48.328;10.096;2024-03-08T14:39:03;9.00;99.90
45549;DHT22;31270;48.328;10.096;2024-03-08T14:41:29;9.10;99.90
45549;DHT22;31270;48.328;10.096;2024-03-08T14:43:55;9.20;99.90
45549;DHT22;31270;48.328;10.096;2024-03-08T14:46:22;9.30;99.90
45549;DHT22;31270;48.328;10.096;2024-03-08T14:48:54;9.40;99.90
45549;DHT22;31270;48.328;10.096;2024-03-08T14:51:20;9.10;99.90
45549;DHT22;31270;48.328;10.096;2024-03-08T14:53:54;9.00;99.90
45549;DHT22;31270;48.328;10.096;2024-03-08T14:56:20;8.90;99.90
45549;DHT22;31270;48.328;10.096;2024-03-08T14:58:46;9.10;99.90
45549;DHT22;31270;48.328;10.096;2024-03-08T15:01:15;9.10;99.90
45549;DHT22;31270;48.328;10.096;2024-03-08T15:03:41;9.20;99.90
45549;DHT22;31270;48.328;10.096;2024-03-08T15:06:08;9.10;99.90
45549;DHT22;31270;48.328;10.096;2024-03-08T15:08:38;9.00;99.90
45549;DHT22;31270;48.328;10.096;2024-03-08T15:11:05;9.10;99.90
45549;DHT22;31270;48.328;10.096;2024-03-08T15:13:34;9.00;99.90
45549;DHT22;31270;48.328;10.096;2024-03-08T15:16:09;9.10;99.90
45549;DHT22;31270;48.328;10.096;2024-03-08T15:18:43;9.10;99.90
45549;DHT22;31270;48.328;10.096;2024-03-08T15:21:13;9.00;99.90
45549;DHT22;31270;48.328;10.096;2024-03-08T15:23:44;9.00;99.90
45549;DHT22;31270;48.328;10.096;2024-03-08T15:26:15;8.90;99.90
45549;DHT22;31270;48.328;10.096;2024-03-08T15:28:42;8.90;99.90
45549;DHT22;31270;48.328;10.096;2024-03-08T15:31:08;8.90;99.90
45549;DHT22;31270;48.328;10.096;2024-03-08T15:33:34;9.00;99.90
45549;DHT22;31270;48.328;10.096;2024-03-08T15:36:00;8.80;99.90
45549;DHT22;31270;48.328;10.096;2024-03-08T15:38:33;8.70;99.90